createdAt,value
2023-01-11T00:01:08.489Z,10.18
2023-01-11T00:03:35.482Z,9.05
2023-01-11T00:06:02.390Z,10.20
2023-01-11T00:08:29.365Z,11.25
2023-01-11T00:10:56.611Z,14.20
2023-01-11T00:13:23.866Z,13.55
2023-01-11T00:15:50.697Z,13.25
2023-01-11T00:18:17.827Z,15.20
2023-01-11T00:20:44.673Z,13.00
2023-01-11T00:23:11.488Z,14.57
2023-01-11T00:25:38.575Z,14.32
2023-01-11T00:28:06.247Z,15.27
2023-01-11T00:30:33.118Z,15.93
2023-01-11T00:33:00.853Z,14.10
2023-01-11T00:35:29.622Z,14.85
2023-01-11T00:37:56.522Z,15.80
2023-01-11T00:40:24.257Z,12.93
2023-01-11T00:43:09.499Z,13.43
2023-01-11T00:45:56.037Z,13.05
2023-01-11T00:48:23.019Z,13.25
2023-01-11T00:50:54.149Z,14.63
2023-01-11T00:53:21.355Z,11.40
2023-01-11T00:55:48.146Z,11.18
2023-01-11T00:58:15.880Z,13.43
2023-01-11T01:00:42.729Z,12.88
2023-01-11T01:03:09.618Z,10.25
2023-01-11T01:05:38.734Z,9.30
2023-01-11T01:08:06.573Z,11.32
2023-01-11T01:10:33.905Z,8.13
2023-01-11T01:13:19.483Z,7.97
2023-01-11T01:15:46.453Z,8.93
2023-01-11T01:18:13.353Z,9.38
2023-01-11T01:20:40.308Z,7.35
2023-01-11T01:23:07.097Z,7.85
2023-01-11T01:25:37.193Z,8.13
2023-01-11T01:28:04.275Z,10.23
2023-01-11T01:30:31.051Z,11.13
2023-01-11T01:32:57.895Z,14.55
2023-01-11T01:35:24.699Z,8.63
2023-01-11T01:37:51.535Z,10.63
2023-01-11T01:40:18.455Z,10.85
2023-01-11T01:42:45.284Z,10.70
2023-01-11T01:45:24.004Z,9.20
2023-01-11T01:48:02.116Z,8.73
2023-01-11T01:50:40.463Z,7.95
2023-01-11T01:53:20.065Z,10.75
2023-01-11T01:55:53.415Z,10.10
2023-01-11T01:58:23.923Z,8.90
2023-01-11T02:00:51.451Z,8.95
2023-01-11T02:03:26.383Z,8.77
2023-01-11T02:05:54.727Z,9.45
2023-01-11T02:08:34.388Z,10.85
2023-01-11T02:13:30.385Z,9.65
2023-01-11T02:18:46.246Z,10.57
2023-01-11T02:21:25.836Z,12.15
2023-01-11T02:24:04.200Z,12.07
2023-01-11T02:26:36.862Z,14.98
2023-01-11T02:29:41.366Z,14.52
2023-01-11T02:32:22.225Z,10.52
2023-01-11T02:34:55.481Z,11.70
2023-01-11T02:37:42.571Z,12.18
2023-01-11T02:40:21.011Z,9.00
2023-01-11T02:43:20.098Z,10.60
2023-01-11T02:46:12.059Z,8.70
2023-01-11T02:48:56.832Z,7.53
2023-01-11T02:51:31.937Z,9.52
2023-01-11T02:54:07.077Z,8.90
2023-01-11T02:56:42.153Z,7.85
2023-01-11T02:59:16.417Z,7.95
2023-01-11T03:01:48.222Z,7.95
2023-01-11T03:04:32.595Z,9.07
2023-01-11T03:07:08.356Z,11.18
2023-01-11T03:10:12.815Z,11.10
2023-01-11T03:13:00.907Z,10.48
2023-01-11T03:15:45.261Z,9.15
2023-01-11T03:18:40.491Z,13.80
2023-01-11T03:21:36.001Z,10.23
2023-01-11T03:24:41.324Z,11.25
2023-01-11T03:27:35.242Z,8.25
2023-01-11T03:30:06.600Z,8.43
2023-01-11T03:33:03.266Z,10.52
2023-01-11T03:35:53.584Z,9.20
2023-01-11T03:38:21.029Z,10.55
2023-01-11T03:40:54.061Z,11.57
2023-01-11T03:43:23.263Z,8.55
2023-01-11T03:46:02.188Z,11.85
2023-01-11T03:48:35.104Z,9.05
2023-01-11T03:51:05.227Z,10.82
2023-01-11T03:53:36.642Z,9.57
2023-01-11T03:56:09.393Z,11.00
2023-01-11T03:58:36.847Z,10.80
2023-01-11T04:01:04.321Z,9.77
2023-01-11T04:03:31.330Z,11.52
2023-01-11T04:06:01.865Z,10.98
2023-01-11T04:08:29.366Z,10.43
2023-01-11T04:10:56.197Z,9.13
2023-01-11T04:13:23.170Z,10.38
2023-01-11T04:15:49.929Z,11.18
2023-01-11T04:18:16.945Z,10.48
2023-01-11T04:20:46.191Z,13.63
2023-01-11T04:23:13.012Z,9.70
2023-01-11T04:25:39.812Z,11.63
2023-01-11T04:28:06.710Z,9.57
2023-01-11T04:30:33.938Z,11.68
2023-01-11T04:33:00.787Z,10.35
2023-01-11T04:35:27.662Z,13.98
2023-01-11T04:37:56.065Z,11.25
2023-01-11T04:40:23.790Z,10.35
2023-01-11T04:42:50.650Z,13.45
2023-01-11T04:45:17.561Z,10.50
2023-01-11T04:47:44.549Z,11.77
2023-01-11T04:50:11.954Z,12.43
2023-01-11T04:52:41.441Z,10.98
2023-01-11T04:55:09.380Z,9.43
2023-01-11T04:57:36.460Z,11.45
2023-01-11T05:00:07.960Z,10.05
2023-01-11T05:02:34.849Z,9.57
2023-01-11T05:05:02.249Z,12.23
2023-01-11T05:07:29.204Z,10.18
2023-01-11T05:09:56.098Z,12.25
2023-01-11T05:12:23.033Z,11.77
2023-01-11T05:14:50.000Z,14.10
2023-01-11T05:17:17.276Z,9.93
2023-01-11T05:19:44.104Z,11.18
2023-01-11T05:22:11.019Z,13.27
2023-01-11T05:24:37.800Z,15.40
2023-01-11T05:27:04.712Z,12.35
2023-01-11T05:29:31.510Z,11.63
2023-01-11T05:31:58.436Z,12.68
2023-01-11T05:34:25.239Z,11.15
2023-01-11T05:36:52.093Z,10.77
2023-01-11T05:39:19.089Z,9.75
2023-01-11T05:41:45.984Z,10.57
2023-01-11T05:44:31.820Z,11.65
2023-01-11T05:46:58.843Z,9.35
2023-01-11T05:49:25.768Z,10.38
2023-01-11T05:51:52.681Z,10.98
2023-01-11T05:54:19.551Z,10.60
2023-01-11T05:56:46.458Z,11.98
2023-01-11T05:59:13.415Z,13.35
2023-01-11T06:01:40.329Z,12.15
2023-01-11T06:04:08.412Z,13.75
2023-01-11T06:06:35.520Z,13.80
2023-01-11T06:09:02.394Z,13.30
2023-01-11T06:11:29.371Z,12.27
2023-01-11T06:13:56.619Z,13.27
2023-01-11T06:16:23.982Z,12.32
2023-01-11T06:18:53.035Z,13.95
2023-01-11T06:21:21.372Z,13.32
2023-01-11T06:23:50.992Z,12.98
2023-01-11T06:28:47.447Z,11.10
2023-01-11T06:31:17.546Z,10.90
2023-01-11T06:33:45.871Z,14.10
2023-01-11T06:36:13.676Z,16.73
2023-01-11T06:38:41.197Z,13.73
2023-01-11T06:41:09.156Z,13.20
2023-01-11T06:43:38.067Z,14.00
2023-01-11T06:46:05.578Z,12.93
2023-01-11T06:48:32.553Z,13.15
2023-01-11T06:50:59.481Z,19.85
2023-01-11T06:53:29.155Z,14.57
2023-01-11T06:55:57.811Z,12.73
2023-01-11T06:58:26.013Z,14.55
2023-01-11T07:00:54.637Z,17.27
2023-01-11T07:04:39.647Z,15.82
2023-01-11T07:07:13.601Z,13.63
2023-01-11T07:09:40.591Z,14.20
2023-01-11T07:12:07.421Z,13.85
2023-01-11T07:14:34.338Z,16.75
2023-01-11T07:17:01.287Z,16.67
2023-01-11T07:19:28.160Z,13.38
2023-01-11T07:21:54.968Z,16.50
2023-01-11T07:24:24.337Z,18.27
2023-01-11T07:26:52.851Z,23.90
2023-01-11T07:29:19.999Z,19.23
2023-01-11T07:31:47.708Z,18.67
2023-01-11T07:34:14.722Z,14.23
2023-01-11T07:36:41.524Z,13.23
2023-01-11T07:39:08.462Z,17.95
2023-01-11T07:41:53.996Z,12.93
2023-01-11T07:44:21.092Z,16.92
2023-01-11T07:46:47.933Z,17.80
2023-01-11T07:49:14.840Z,20.35
2023-01-11T07:51:41.700Z,23.92
2023-01-11T07:54:08.641Z,19.88
2023-01-11T07:56:35.411Z,16.05
2023-01-11T07:59:02.388Z,14.73
2023-01-11T08:01:29.232Z,16.92
2023-01-11T08:03:56.147Z,14.38
2023-01-11T08:06:22.994Z,19.45
2023-01-11T08:08:49.789Z,19.20
2023-01-11T08:11:35.265Z,16.15
2023-01-11T08:14:20.527Z,16.15
2023-01-11T08:16:47.381Z,16.95
2023-01-11T08:19:14.164Z,21.92
2023-01-11T08:21:43.445Z,22.23
2023-01-11T08:24:10.544Z,17.23
2023-01-11T08:26:37.416Z,15.48
2023-01-11T08:29:04.297Z,18.95
2023-01-11T08:31:31.207Z,19.00
2023-01-11T08:33:57.958Z,16.45
2023-01-11T08:36:27.338Z,18.88
2023-01-11T08:38:57.590Z,18.23
2023-01-11T08:41:25.253Z,18.60
2023-01-11T08:43:52.244Z,19.05
2023-01-11T08:46:19.569Z,20.10
2023-01-11T08:48:50.052Z,23.88
2023-01-11T08:51:18.154Z,17.33
2023-01-11T08:53:45.433Z,17.35
2023-01-11T08:56:12.356Z,18.50
2023-01-11T08:58:39.277Z,17.65
2023-01-11T09:01:09.569Z,21.70
2023-01-11T09:06:11.371Z,15.15
2023-01-11T09:08:44.789Z,16.75
2023-01-11T09:11:44.542Z,15.77
2023-01-11T09:14:15.674Z,19.08
2023-01-11T09:16:43.891Z,17.50
2023-01-11T09:19:11.254Z,18.23
2023-01-11T09:21:41.117Z,17.63
2023-01-11T09:26:37.602Z,17.27
2023-01-11T09:29:05.269Z,19.50
2023-01-11T09:31:33.622Z,18.17
2023-01-11T09:34:00.859Z,16.42
2023-01-11T09:36:28.053Z,17.15
2023-01-11T09:38:57.489Z,12.77
2023-01-11T09:41:46.564Z,12.02
2023-01-11T09:44:21.384Z,13.30
2023-01-11T09:46:52.397Z,8.48
2023-01-11T09:49:34.426Z,11.00
2023-01-11T09:52:28.675Z,8.02
2023-01-11T09:54:58.197Z,8.27
2023-01-11T09:58:02.943Z,10.93
2023-01-11T10:00:50.608Z,7.60
2023-01-11T10:04:00.137Z,7.97
2023-01-11T10:07:08.608Z,8.93
2023-01-11T10:18:31.655Z,9.57
2023-01-11T10:18:53.821Z,8.85
2023-01-11T10:21:28.850Z,9.30
2023-01-11T10:24:06.871Z,11.88
2023-01-11T10:26:39.967Z,9.00
2023-01-11T10:29:16.494Z,9.95
2023-01-11T10:32:02.493Z,10.93
2023-01-11T10:34:59.035Z,9.45
2023-01-11T10:37:52.212Z,7.50
2023-01-11T10:40:30.453Z,9.02
2023-01-11T10:43:21.864Z,9.85
2023-01-11T10:45:55.815Z,10.02
2023-01-11T10:48:39.237Z,8.35
2023-01-11T10:51:27.435Z,8.57
2023-01-11T10:54:00.715Z,11.85
2023-01-11T10:57:02.771Z,15.93
2023-01-11T10:59:42.876Z,25.48
2023-01-11T11:02:24.785Z,32.30
2023-01-11T11:05:36.159Z,21.23
2023-01-11T11:08:26.635Z,15.77
2023-01-11T11:11:09.257Z,13.25
2023-01-11T11:13:54.921Z,13.52
2023-01-11T11:16:21.765Z,16.92
2023-01-11T11:18:54.029Z,12.75
2023-01-11T11:21:29.101Z,14.57
2023-01-11T11:24:00.483Z,12.30
2023-01-11T11:26:38.228Z,14.10
2023-01-11T11:29:09.014Z,10.93
2023-01-11T11:31:42.170Z,11.15
2023-01-11T11:34:20.668Z,9.63
2023-01-11T11:36:51.688Z,10.05
2023-01-11T11:39:25.654Z,10.40
2023-01-11T11:41:58.729Z,11.13
2023-01-11T11:44:27.675Z,12.55
2023-01-11T11:46:58.560Z,15.53
2023-01-11T11:49:26.163Z,13.20
2023-01-11T11:51:53.853Z,13.93
2023-01-11T11:54:26.039Z,12.02
2023-01-11T11:56:54.463Z,11.77
2023-01-11T11:59:23.549Z,13.82
2023-01-11T12:01:59.334Z,8.90
2023-01-11T12:04:47.241Z,10.88
2023-01-11T12:07:15.850Z,8.20
2023-01-11T12:10:05.312Z,9.25
2023-01-11T12:12:34.281Z,8.48
2023-01-11T12:15:16.384Z,9.07
2023-01-11T12:17:43.672Z,10.90
2023-01-11T12:20:22.465Z,9.50
2023-01-11T12:23:09.825Z,10.33
2023-01-11T12:25:49.054Z,15.50
2023-01-11T12:28:28.053Z,14.45
2023-01-11T12:31:03.158Z,9.93
2023-01-11T12:33:38.584Z,11.85
2023-01-11T12:36:20.586Z,13.90
2023-01-11T12:39:12.424Z,16.75
2023-01-11T12:41:57.791Z,13.13
2023-01-11T12:44:52.227Z,9.75
2023-01-11T12:47:40.256Z,13.35
2023-01-11T12:50:13.037Z,12.40
2023-01-11T12:53:09.722Z,14.35
2023-01-11T12:55:58.144Z,13.32
2023-01-11T12:58:28.145Z,14.13
2023-01-11T13:01:29.424Z,11.38
2023-01-11T13:04:51.651Z,12.90
2023-01-11T13:07:21.246Z,15.48
2023-01-11T13:10:06.559Z,16.63
2023-01-11T13:12:54.538Z,14.73
2023-01-11T13:15:46.984Z,16.23
2023-01-11T13:18:29.418Z,13.15
2023-01-11T13:21:14.496Z,11.88
2023-01-11T13:23:49.618Z,13.20
2023-01-11T13:27:01.103Z,12.40
2023-01-11T13:29:31.711Z,13.93
2023-01-11T13:32:02.428Z,13.10
2023-01-11T13:34:47.822Z,13.32
2023-01-11T13:37:25.904Z,13.60
2023-01-11T13:40:08.437Z,13.93
2023-01-11T13:42:39.611Z,12.70
2023-01-11T13:45:15.580Z,12.73
2023-01-11T13:47:50.484Z,12.48
2023-01-11T13:50:37.342Z,9.93
2023-01-11T13:53:39.035Z,11.20
2023-01-11T13:56:39.664Z,11.52
2023-01-11T13:59:16.043Z,15.85
2023-01-11T14:02:00.869Z,8.93
2023-01-11T14:04:30.186Z,9.07
2023-01-11T14:07:09.597Z,13.88
2023-01-11T14:10:10.703Z,9.32
2023-01-11T14:12:53.320Z,12.38
2023-01-11T14:15:37.988Z,9.80
2023-01-11T14:18:11.285Z,10.02
2023-01-11T14:20:59.131Z,9.30
2023-01-11T14:23:35.415Z,9.60
2023-01-11T14:26:23.417Z,11.90
2023-01-11T14:28:59.337Z,11.02
2023-01-11T14:32:03.659Z,12.15
2023-01-11T14:34:50.156Z,16.65
2023-01-11T14:37:49.278Z,11.75
2023-01-11T14:40:30.126Z,11.20
2023-01-11T14:43:32.359Z,12.20
2023-01-11T14:46:26.953Z,12.02
2023-01-11T14:49:02.886Z,13.27
2023-01-11T14:51:33.732Z,12.25
2023-01-11T14:54:11.974Z,10.82
2023-01-11T14:56:44.531Z,14.63
2023-01-11T14:59:34.603Z,9.82
2023-01-11T15:02:04.786Z,11.15
2023-01-11T15:04:34.533Z,9.60
2023-01-11T15:07:02.441Z,8.98
2023-01-11T15:09:56.466Z,9.50
2023-01-11T15:12:32.437Z,10.27
2023-01-11T15:15:18.927Z,12.23
2023-01-11T15:18:04.694Z,9.45
2023-01-11T15:20:33.682Z,9.90
2023-01-11T15:23:03.449Z,13.33
2023-01-11T15:25:33.931Z,11.32
2023-01-11T15:28:26.049Z,12.57
2023-01-11T15:30:53.412Z,11.38
2023-01-11T15:33:20.307Z,15.20
2023-01-11T15:35:56.481Z,15.30
2023-01-11T15:38:49.304Z,16.08
2023-01-11T15:41:55.672Z,17.13
2023-01-11T15:45:00.227Z,17.30
2023-01-11T15:47:49.715Z,16.60
2023-01-11T15:50:58.819Z,18.90
2023-01-11T15:53:34.585Z,23.38
2023-01-11T15:56:27.805Z,20.10
2023-01-11T15:59:09.399Z,17.30
2023-01-11T16:02:14.512Z,15.90
2023-01-11T16:05:13.333Z,21.13
2023-01-11T16:07:46.598Z,21.00
2023-01-11T16:10:38.104Z,31.33
2023-01-11T16:13:26.325Z,23.98
2023-01-11T16:15:58.987Z,22.75
2023-01-11T16:18:33.675Z,18.92
2023-01-11T16:21:15.140Z,22.25
2023-01-11T16:23:42.111Z,22.27
2023-01-11T16:26:09.083Z,24.58
2023-01-11T16:28:36.405Z,21.92
2023-01-11T16:31:05.620Z,20.92
2023-01-11T16:33:34.533Z,28.75
2023-01-11T16:36:12.096Z,19.48
2023-01-11T16:38:48.018Z,28.00
2023-01-11T16:41:16.585Z,24.98
2023-01-11T16:44:02.276Z,20.20
2023-01-11T16:47:04.268Z,21.40
2023-01-11T16:49:31.357Z,22.52
2023-01-11T16:52:00.416Z,19.73
2023-01-11T16:54:32.111Z,26.60
2023-01-11T16:57:01.418Z,17.52
2023-01-11T16:59:34.884Z,19.70
2023-01-11T17:02:03.713Z,20.23
2023-01-11T17:04:48.288Z,20.15
2023-01-11T17:07:27.664Z,19.33
2023-01-11T17:10:14.535Z,25.45
2023-01-11T17:12:45.593Z,18.55
2023-01-11T17:15:38.257Z,16.67
2023-01-11T17:18:05.202Z,17.70
2023-01-11T17:20:32.217Z,29.88
2023-01-11T17:22:59.627Z,37.70
2023-01-11T17:25:41.011Z,42.33
2023-01-11T17:28:18.294Z,36.40
2023-01-11T17:30:48.092Z,39.95
2023-01-11T17:35:54.733Z,34.28
2023-01-11T17:38:24.625Z,34.25
2023-01-11T17:40:51.899Z,30.83
2023-01-11T17:43:46.009Z,27.38
2023-01-11T17:46:18.512Z,24.70
2023-01-11T17:48:56.373Z,24.15
2023-01-11T17:51:31.462Z,26.23
2023-01-11T17:53:58.371Z,25.75
2023-01-11T17:56:45.197Z,29.38
2023-01-11T17:59:11.972Z,22.33
2023-01-11T18:01:39.305Z,23.88
2023-01-11T18:04:06.335Z,19.80
2023-01-11T18:06:43.918Z,24.73
2023-01-11T18:09:31.798Z,24.17
2023-01-11T18:12:06.952Z,23.38
2023-01-11T18:14:40.665Z,20.52
2023-01-11T18:17:36.717Z,27.85
2023-01-11T18:20:29.407Z,25.42
2023-01-11T18:22:59.892Z,28.30
2023-01-11T18:25:32.783Z,32.83
2023-01-11T18:28:12.062Z,31.17
2023-01-11T18:30:45.883Z,21.42
2023-01-11T18:33:16.973Z,22.38
2023-01-11T18:35:45.087Z,34.30
2023-01-11T18:38:33.993Z,35.90
2023-01-11T18:41:24.999Z,40.67
2023-01-11T18:43:53.469Z,81.07
2023-01-11T18:46:20.622Z,80.72
2023-01-11T18:48:47.496Z,72.47
2023-01-11T18:51:21.156Z,75.70
2023-01-11T18:53:48.003Z,102.93
2023-01-11T18:56:17.087Z,100.20
2023-01-11T19:01:54.336Z,107.38
2023-01-11T19:04:26.141Z,107.00
2023-01-11T19:07:02.157Z,98.95
2023-01-11T19:09:29.099Z,71.10
2023-01-11T19:11:56.147Z,60.90
2023-01-11T19:14:23.497Z,60.33
2023-01-11T19:16:51.067Z,52.20
2023-01-11T19:19:17.958Z,50.67
2023-01-11T19:21:45.151Z,45.47
2023-01-11T19:24:12.368Z,45.78
2023-01-11T19:26:39.380Z,48.88
2023-01-11T19:29:06.572Z,44.92
2023-01-11T19:32:40.023Z,45.42
2023-01-11T19:35:23.891Z,44.03
2023-01-11T19:37:51.443Z,46.78
2023-01-11T19:40:21.229Z,40.08
2023-01-11T19:42:48.900Z,36.38
2023-01-11T19:45:15.986Z,34.67
2023-01-11T19:47:42.953Z,34.47
2023-01-11T19:50:11.483Z,35.50
2023-01-11T19:52:38.451Z,39.83
2023-01-11T19:55:05.725Z,42.50
2023-01-11T19:57:32.739Z,44.75
2023-01-11T19:59:59.672Z,46.78
2023-01-11T20:02:26.644Z,42.72
2023-01-11T20:04:53.836Z,45.25
2023-01-11T20:07:21.256Z,42.67
2023-01-11T20:09:56.575Z,44.97
2023-01-11T20:12:23.676Z,36.53
2023-01-11T20:14:50.525Z,35.78
2023-01-11T20:17:21.003Z,45.28
2023-01-11T20:19:54.554Z,34.90
2023-01-11T20:22:33.490Z,37.67
2023-01-11T20:25:00.479Z,41.67
2023-01-11T20:27:27.821Z,41.13
2023-01-11T20:29:54.836Z,38.28
2023-01-11T20:32:41.113Z,41.25
2023-01-11T20:35:09.598Z,43.72
2023-01-11T20:37:36.678Z,39.17
2023-01-11T20:40:04.085Z,40.38
2023-01-11T20:42:31.626Z,44.53
2023-01-11T20:44:58.606Z,52.90
2023-01-11T20:47:25.463Z,53.15
2023-01-11T20:49:52.453Z,55.65
2023-01-11T20:52:19.387Z,49.45
2023-01-11T20:54:46.374Z,49.17
2023-01-11T20:57:13.331Z,44.13
2023-01-11T20:59:40.299Z,37.58
2023-01-11T21:02:07.751Z,35.38
2023-01-11T21:04:35.808Z,36.90
2023-01-11T21:07:03.313Z,36.60
2023-01-11T21:09:30.259Z,32.80
2023-01-11T21:11:57.151Z,27.77
2023-01-11T21:14:24.074Z,29.45
2023-01-11T21:16:53.187Z,31.92
2023-01-11T21:19:20.225Z,43.17
2023-01-11T21:21:49.054Z,43.42
2023-01-11T21:24:17.335Z,34.15
2023-01-11T21:26:46.101Z,34.97
2023-01-11T21:29:13.482Z,37.00
2023-01-11T21:31:41.563Z,33.25
2023-01-11T21:34:11.595Z,31.48
2023-01-11T21:36:38.926Z,28.83
2023-01-11T21:39:06.233Z,34.03
2023-01-11T21:41:52.819Z,32.65
2023-01-11T21:44:20.869Z,37.83
2023-01-11T21:46:48.344Z,34.28
2023-01-11T21:49:16.305Z,35.45
2023-01-11T21:51:43.791Z,37.83
2023-01-11T21:54:13.280Z,40.50
2023-01-11T21:56:41.953Z,32.38
2023-01-11T21:59:08.983Z,36.00
2023-01-11T22:01:37.205Z,30.95
2023-01-11T22:04:15.081Z,30.38
2023-01-11T22:06:47.593Z,30.48
2023-01-11T22:09:15.452Z,31.92
2023-01-11T22:11:42.401Z,30.05
2023-01-11T22:14:09.427Z,31.85
2023-01-11T22:16:37.069Z,36.88
2023-01-11T22:19:07.293Z,37.20
2023-01-11T22:21:35.654Z,31.90
2023-01-11T22:24:02.663Z,31.00
2023-01-11T22:26:34.725Z,34.08
2023-01-11T22:29:17.335Z,34.35
2023-01-11T22:31:47.491Z,27.52
2023-01-11T22:34:15.158Z,29.30
2023-01-11T22:36:43.144Z,28.48
2023-01-11T22:39:11.071Z,34.33
2023-01-11T22:41:39.986Z,29.63
2023-01-11T22:44:08.340Z,32.25
2023-01-11T22:46:35.799Z,28.58
2023-01-11T22:49:03.466Z,26.52
2023-01-11T22:51:30.475Z,26.92
2023-01-11T22:53:58.310Z,30.05
2023-01-11T22:56:26.585Z,28.95
2023-01-11T22:58:54.831Z,27.80
2023-01-11T23:01:24.856Z,31.45
2023-01-11T23:03:53.293Z,34.35
2023-01-11T23:06:23.551Z,38.90
2023-01-11T23:08:50.612Z,47.30
2023-01-11T23:11:40.566Z,64.68
2023-01-11T23:14:09.991Z,74.47
2023-01-11T23:16:37.392Z,77.32
2023-01-11T23:19:06.013Z,68.80
2023-01-11T23:21:33.160Z,57.58
2023-01-11T23:24:03.744Z,51.50
2023-01-11T23:26:30.954Z,48.13
2023-01-11T23:28:57.819Z,42.10
2023-01-11T23:31:26.071Z,45.65
2023-01-11T23:33:55.517Z,43.67
2023-01-11T23:36:24.296Z,46.58
2023-01-11T23:38:51.460Z,39.53
2023-01-11T23:41:38.984Z,34.72
2023-01-11T23:44:09.106Z,30.05
2023-01-11T23:46:55.462Z,30.60
2023-01-11T23:49:22.862Z,30.83
2023-01-11T23:51:49.708Z,25.45
2023-01-11T23:54:17.042Z,31.92
2023-01-11T23:56:44.435Z,27.42
2023-01-11T23:59:11.506Z,30.17
